sensor_id;sensor_type;location;lat;lon;timestamp;temperature;humidity
51988;DHT22;38003;52.012;4.346;2022-12-29T00:01:46;12.60;79.50
51988;DHT22;38003;52.012;4.346;2022-12-29T00:04:14;12.60;79.70
51988;DHT22;38003;52.012;4.346;2022-12-29T00:06:43;12.70;79.20
51988;DHT22;38003;52.012;4.346;2022-12-29T00:09:11;12.60;78.30
51988;DHT22;38003;52.012;4.346;2022-12-29T00:11:40;12.70;78.60
51988;DHT22;38003;52.012;4.346;2022-12-29T00:14:09;12.70;78.50
51988;DHT22;38003;52.012;4.346;2022-12-29T00:16:54;12.70;78.20
51988;DHT22;38003;52.012;4.346;2022-12-29T00:19:23;12.80;78.20
51988;DHT22;38003;52.012;4.346;2022-12-29T00:22:09;12.80;78.10
51988;DHT22;38003;52.012;4.346;2022-12-29T00:24:54;12.90;77.90
51988;DHT22;38003;52.012;4.346;2022-12-29T00:27:38;12.80;77.50
51988;DHT22;38003;52.012;4.346;2022-12-29T00:30:30;12.80;77.20
51988;DHT22;38003;52.012;4.346;2022-12-29T00:33:17;12.80;76.90
51988;DHT22;38003;52.012;4.346;2022-12-29T00:36:04;12.70;77.30
51988;DHT22;38003;52.012;4.346;2022-12-29T00:38:36;12.80;77.60
51988;DHT22;38003;52.012;4.346;2022-12-29T00:41:22;12.70;77.90
51988;DHT22;38003;52.012;4.346;2022-12-29T00:44:12;12.70;77.90
51988;DHT22;38003;52.012;4.346;2022-12-29T00:46:41;12.80;78.20
51988;DHT22;38003;52.012;4.346;2022-12-29T00:49:11;12.70;78.50
51988;DHT22;38003;52.012;4.346;2022-12-29T00:52:00;12.70;78.70
51988;DHT22;38003;52.012;4.346;2022-12-29T00:54:29;12.60;79.30
51988;DHT22;38003;52.012;4.346;2022-12-29T00:56:57;12.60;79.10
51988;DHT22;38003;52.012;4.346;2022-12-29T00:59:26;12.60;79.20
51988;DHT22;38003;52.012;4.346;2022-12-29T01:01:54;12.60;79.20
51988;DHT22;38003;52.012;4.346;2022-12-29T01:04:24;12.60;79.60
51988;DHT22;38003;52.012;4.346;2022-12-29T01:06:52;12.60;79.40
51988;DHT22;38003;52.012;4.346;2022-12-29T01:09:21;12.60;78.90
51988;DHT22;38003;52.012;4.346;2022-12-29T01:12:07;12.70;79.10
51988;DHT22;38003;52.012;4.346;2022-12-29T01:14:38;12.60;79.10
51988;DHT22;38003;52.012;4.346;2022-12-29T01:17:06;12.60;79.60
51988;DHT22;38003;52.012;4.346;2022-12-29T01:19:34;13.40;79.70
51988;DHT22;38003;52.012;4.346;2022-12-29T01:22:02;12.50;79.80
51988;DHT22;38003;52.012;4.346;2022-12-29T01:24:30;12.50;79.60
51988;DHT22;38003;52.012;4.346;2022-12-29T01:26:57;12.60;79.30
51988;DHT22;38003;52.012;4.346;2022-12-29T01:29:25;12.50;79.00
51988;DHT22;38003;52.012;4.346;2022-12-29T01:31:54;12.60;78.80
51988;DHT22;38003;52.012;4.346;2022-12-29T01:34:22;12.60;78.40
51988;DHT22;38003;52.012;4.346;2022-12-29T01:36:50;12.50;78.90
51988;DHT22;38003;52.012;4.346;2022-12-29T01:39:18;12.50;78.90
51988;DHT22;38003;52.012;4.346;2022-12-29T01:41:46;12.50;78.80
51988;DHT22;38003;52.012;4.346;2022-12-29T01:44:46;12.60;78.60
51988;DHT22;38003;52.012;4.346;2022-12-29T01:47:21;12.50;78.70
51988;DHT22;38003;52.012;4.346;2022-12-29T01:49:51;12.50;78.50
51988;DHT22;38003;52.012;4.346;2022-12-29T01:52:20;12.50;78.20
51988;DHT22;38003;52.012;4.346;2022-12-29T01:54:52;12.50;78.40
51988;DHT22;38003;52.012;4.346;2022-12-29T01:57:24;12.50;78.30
51988;DHT22;38003;52.012;4.346;2022-12-29T01:59:55;12.40;78.10
51988;DHT22;38003;52.012;4.346;2022-12-29T02:02:25;12.40;78.60
51988;DHT22;38003;52.012;4.346;2022-12-29T02:04:59;12.40;78.50
51988;DHT22;38003;52.012;4.346;2022-12-29T02:07:31;12.50;78.10
51988;DHT22;38003;52.012;4.346;2022-12-29T02:10:00;12.50;77.80
51988;DHT22;38003;52.012;4.346;2022-12-29T02:12:29;12.50;78.10
51988;DHT22;38003;52.012;4.346;2022-12-29T02:15:00;12.40;78.50
51988;DHT22;38003;52.012;4.346;2022-12-29T02:17:42;12.50;78.40
51988;DHT22;38003;52.012;4.346;2022-12-29T02:20:52;12.50;79.00
51988;DHT22;38003;52.012;4.346;2022-12-29T02:23:49;12.50;79.20
51988;DHT22;38003;52.012;4.346;2022-12-29T02:26:30;12.30;79.60
51988;DHT22;38003;52.012;4.346;2022-12-29T02:32:01;12.10;80.50
51988;DHT22;38003;52.012;4.346;2022-12-29T02:34:39;12.00;80.40
51988;DHT22;38003;52.012;4.346;2022-12-29T02:37:17;11.90;80.70
51988;DHT22;38003;52.012;4.346;2022-12-29T02:39:52;11.80;80.90
51988;DHT22;38003;52.012;4.346;2022-12-29T02:42:24;11.80;80.80
51988;DHT22;38003;52.012;4.346;2022-12-29T02:44:59;11.80;80.50
51988;DHT22;38003;52.012;4.346;2022-12-29T02:47:36;11.70;80.50
51988;DHT22;38003;52.012;4.346;2022-12-29T02:50:08;11.60;80.90
51988;DHT22;38003;52.012;4.346;2022-12-29T02:52:40;11.70;80.70
51988;DHT22;38003;52.012;4.346;2022-12-29T02:55:11;11.60;80.50
51988;DHT22;38003;52.012;4.346;2022-12-29T02:57:38;11.60;79.40
51988;DHT22;38003;52.012;4.346;2022-12-29T03:00:09;11.60;79.80
51988;DHT22;38003;52.012;4.346;2022-12-29T03:02:54;11.60;80.00
51988;DHT22;38003;52.012;4.346;2022-12-29T03:05:42;11.60;79.70
51988;DHT22;38003;52.012;4.346;2022-12-29T03:08:20;11.60;79.80
51988;DHT22;38003;52.012;4.346;2022-12-29T03:10:55;11.70;79.20
51988;DHT22;38003;52.012;4.346;2022-12-29T03:13:29;11.80;78.70
51988;DHT22;38003;52.012;4.346;2022-12-29T03:16:21;11.80;78.70
51988;DHT22;38003;52.012;4.346;2022-12-29T03:19:00;11.80;78.10
51988;DHT22;38003;52.012;4.346;2022-12-29T03:21:33;11.70;78.20
51988;DHT22;38003;52.012;4.346;2022-12-29T03:24:22;11.70;78.50
51988;DHT22;38003;52.012;4.346;2022-12-29T03:26:53;11.60;78.40
51988;DHT22;38003;52.012;4.346;2022-12-29T03:29:22;11.60;78.70
51988;DHT22;38003;52.012;4.346;2022-12-29T03:31:52;11.50;78.50
51988;DHT22;38003;52.012;4.346;2022-12-29T03:34:24;11.60;78.40
51988;DHT22;38003;52.012;4.346;2022-12-29T03:36:55;11.80;77.70
51988;DHT22;38003;52.012;4.346;2022-12-29T03:39:24;11.70;77.60
51988;DHT22;38003;52.012;4.346;2022-12-29T03:41:57;11.80;78.00
51988;DHT22;38003;52.012;4.346;2022-12-29T03:44:32;11.80;77.60
51988;DHT22;38003;52.012;4.346;2022-12-29T03:47:00;11.80;77.80
51988;DHT22;38003;52.012;4.346;2022-12-29T03:49:30;11.80;77.30
51988;DHT22;38003;52.012;4.346;2022-12-29T03:51:57;11.80;76.90
51988;DHT22;38003;52.012;4.346;2022-12-29T03:54:25;11.80;76.90
51988;DHT22;38003;52.012;4.346;2022-12-29T03:56:53;11.90;76.50
51988;DHT22;38003;52.012;4.346;2022-12-29T03:59:21;11.70;75.10
51988;DHT22;38003;52.012;4.346;2022-12-29T04:01:49;11.70;76.50
51988;DHT22;38003;52.012;4.346;2022-12-29T04:04:17;11.70;76.70
51988;DHT22;38003;52.012;4.346;2022-12-29T04:06:46;11.80;75.60
51988;DHT22;38003;52.012;4.346;2022-12-29T04:09:14;11.70;75.20
51988;DHT22;38003;52.012;4.346;2022-12-29T04:11:43;11.60;75.10
51988;DHT22;38003;52.012;4.346;2022-12-29T04:14:11;11.60;75.40
51988;DHT22;38003;52.012;4.346;2022-12-29T04:16:40;11.60;75.10
51988;DHT22;38003;52.012;4.346;2022-12-29T04:19:08;11.50;74.80
51988;DHT22;38003;52.012;4.346;2022-12-29T04:21:36;11.50;75.50
51988;DHT22;38003;52.012;4.346;2022-12-29T04:24:05;11.40;75.80
51988;DHT22;38003;52.012;4.346;2022-12-29T04:26:33;11.60;75.90
51988;DHT22;38003;52.012;4.346;2022-12-29T04:29:01;11.50;75.80
51988;DHT22;38003;52.012;4.346;2022-12-29T04:31:29;11.50;76.30
51988;DHT22;38003;52.012;4.346;2022-12-29T04:33:57;11.50;76.80
51988;DHT22;38003;52.012;4.346;2022-12-29T04:36:26;11.30;77.50
51988;DHT22;38003;52.012;4.346;2022-12-29T04:38:56;11.30;78.20
51988;DHT22;38003;52.012;4.346;2022-12-29T04:41:25;11.30;79.20
51988;DHT22;38003;52.012;4.346;2022-12-29T04:43:53;11.30;79.20
51988;DHT22;38003;52.012;4.346;2022-12-29T04:46:21;11.30;78.70
51988;DHT22;38003;52.012;4.346;2022-12-29T04:48:49;11.40;78.30
51988;DHT22;38003;52.012;4.346;2022-12-29T04:51:17;11.40;78.10
51988;DHT22;38003;52.012;4.346;2022-12-29T04:53:44;11.30;78.20
51988;DHT22;38003;52.012;4.346;2022-12-29T04:56:12;11.30;77.70
51988;DHT22;38003;52.012;4.346;2022-12-29T04:58:42;11.30;77.60
51988;DHT22;38003;52.012;4.346;2022-12-29T05:01:09;11.40;77.20
51988;DHT22;38003;52.012;4.346;2022-12-29T05:03:37;11.40;77.60
51988;DHT22;38003;52.012;4.346;2022-12-29T05:06:06;11.40;77.60
51988;DHT22;38003;52.012;4.346;2022-12-29T05:08:34;11.40;77.80
51988;DHT22;38003;52.012;4.346;2022-12-29T05:11:02;11.40;77.80
51988;DHT22;38003;52.012;4.346;2022-12-29T05:13:30;11.40;78.30
51988;DHT22;38003;52.012;4.346;2022-12-29T05:16:00;11.40;78.10
51988;DHT22;38003;52.012;4.346;2022-12-29T05:18:28;11.50;78.00
51988;DHT22;38003;52.012;4.346;2022-12-29T05:20:56;11.60;77.60
51988;DHT22;38003;52.012;4.346;2022-12-29T05:23:24;11.50;78.20
51988;DHT22;38003;52.012;4.346;2022-12-29T05:25:51;11.50;78.50
51988;DHT22;38003;52.012;4.346;2022-12-29T05:28:19;11.50;77.80
51988;DHT22;38003;52.012;4.346;2022-12-29T05:30:48;11.50;77.90
51988;DHT22;38003;52.012;4.346;2022-12-29T05:33:18;11.60;77.70
51988;DHT22;38003;52.012;4.346;2022-12-29T05:35:46;11.60;77.30
51988;DHT22;38003;52.012;4.346;2022-12-29T05:38:14;11.60;76.50
51988;DHT22;38003;52.012;4.346;2022-12-29T05:40:44;11.40;77.30
51988;DHT22;38003;52.012;4.346;2022-12-29T05:43:11;11.50;77.50
51988;DHT22;38003;52.012;4.346;2022-12-29T05:45:40;11.50;77.00
51988;DHT22;38003;52.012;4.346;2022-12-29T05:48:08;11.50;77.80
51988;DHT22;38003;52.012;4.346;2022-12-29T05:50:37;11.40;77.80
51988;DHT22;38003;52.012;4.346;2022-12-29T05:53:04;11.30;78.70
51988;DHT22;38003;52.012;4.346;2022-12-29T05:55:33;11.20;78.60
51988;DHT22;38003;52.012;4.346;2022-12-29T05:58:01;11.30;78.20
51988;DHT22;38003;52.012;4.346;2022-12-29T06:00:29;11.20;78.60
51988;DHT22;38003;52.012;4.346;2022-12-29T06:02:57;11.30;78.20
51988;DHT22;38003;52.012;4.346;2022-12-29T06:05:25;11.10;79.00
51988;DHT22;38003;52.012;4.346;2022-12-29T06:07:55;11.20;78.80
51988;DHT22;38003;52.012;4.346;2022-12-29T06:10:23;11.20;78.20
51988;DHT22;38003;52.012;4.346;2022-12-29T06:12:50;11.20;77.70
51988;DHT22;38003;52.012;4.346;2022-12-29T06:15:18;11.20;77.10
51988;DHT22;38003;52.012;4.346;2022-12-29T06:17:46;11.10;77.80
51988;DHT22;38003;52.012;4.346;2022-12-29T06:20:14;11.10;77.50
51988;DHT22;38003;52.012;4.346;2022-12-29T06:22:42;11.10;77.20
51988;DHT22;38003;52.012;4.346;2022-12-29T06:25:12;11.00;76.80
51988;DHT22;38003;52.012;4.346;2022-12-29T06:27:39;11.00;75.90
51988;DHT22;38003;52.012;4.346;2022-12-29T06:30:09;11.00;75.90
51988;DHT22;38003;52.012;4.346;2022-12-29T06:32:37;11.00;75.40
51988;DHT22;38003;52.012;4.346;2022-12-29T06:35:06;10.90;74.80
51988;DHT22;38003;52.012;4.346;2022-12-29T06:37:34;10.90;75.50
51988;DHT22;38003;52.012;4.346;2022-12-29T06:40:02;11.00;75.00
51988;DHT22;38003;52.012;4.346;2022-12-29T06:42:31;11.00;74.60
51988;DHT22;38003;52.012;4.346;2022-12-29T06:44:59;11.00;74.50
51988;DHT22;38003;52.012;4.346;2022-12-29T06:47:27;11.00;74.00
51988;DHT22;38003;52.012;4.346;2022-12-29T06:49:55;10.90;74.40
51988;DHT22;38003;52.012;4.346;2022-12-29T06:52:23;10.90;74.40
51988;DHT22;38003;52.012;4.346;2022-12-29T06:54:51;11.00;74.50
51988;DHT22;38003;52.012;4.346;2022-12-29T06:57:19;11.00;74.50
51988;DHT22;38003;52.012;4.346;2022-12-29T06:59:48;11.00;74.80
51988;DHT22;38003;52.012;4.346;2022-12-29T07:02:16;11.00;74.50
51988;DHT22;38003;52.012;4.346;2022-12-29T07:04:45;11.00;74.60
51988;DHT22;38003;52.012;4.346;2022-12-29T07:07:13;11.20;74.30
51988;DHT22;38003;52.012;4.346;2022-12-29T07:09:41;11.10;74.20
51988;DHT22;38003;52.012;4.346;2022-12-29T07:12:08;11.10;74.30
51988;DHT22;38003;52.012;4.346;2022-12-29T07:14:36;11.20;74.40
51988;DHT22;38003;52.012;4.346;2022-12-29T07:17:10;11.10;74.30
51988;DHT22;38003;52.012;4.346;2022-12-29T07:19:38;11.20;74.20
51988;DHT22;38003;52.012;4.346;2022-12-29T07:22:06;11.30;74.20
51988;DHT22;38003;52.012;4.346;2022-12-29T07:24:34;11.20;73.90
51988;DHT22;38003;52.012;4.346;2022-12-29T07:27:02;11.20;74.20
51988;DHT22;38003;52.012;4.346;2022-12-29T07:29:29;11.20;74.20
51988;DHT22;38003;52.012;4.346;2022-12-29T07:31:57;11.30;74.80
51988;DHT22;38003;52.012;4.346;2022-12-29T07:34:27;11.20;74.10
51988;DHT22;38003;52.012;4.346;2022-12-29T07:36:55;11.20;74.20
51988;DHT22;38003;52.012;4.346;2022-12-29T07:39:22;11.30;74.10
51988;DHT22;38003;52.012;4.346;2022-12-29T07:41:50;11.30;73.80
51988;DHT22;38003;52.012;4.346;2022-12-29T07:44:18;11.40;73.90
51988;DHT22;38003;52.012;4.346;2022-12-29T07:46:46;11.40;73.40
51988;DHT22;38003;52.012;4.346;2022-12-29T07:49:23;11.30;73.40
51988;DHT22;38003;52.012;4.346;2022-12-29T07:51:52;11.30;73.40
51988;DHT22;38003;52.012;4.346;2022-12-29T07:54:20;11.30;73.30
51988;DHT22;38003;52.012;4.346;2022-12-29T07:56:49;11.40;73.60
51988;DHT22;38003;52.012;4.346;2022-12-29T07:59:17;11.30;72.80
51988;DHT22;38003;52.012;4.346;2022-12-29T08:01:45;11.40;73.10
51988;DHT22;38003;52.012;4.346;2022-12-29T08:04:14;11.40;73.00
51988;DHT22;38003;52.012;4.346;2022-12-29T08:06:42;11.20;72.90
51988;DHT22;38003;52.012;4.346;2022-12-29T08:09:11;11.40;72.70
51988;DHT22;38003;52.012;4.346;2022-12-29T08:11:47;11.30;73.50
51988;DHT22;38003;52.012;4.346;2022-12-29T08:14:15;11.20;74.20
51988;DHT22;38003;52.012;4.346;2022-12-29T08:16:43;11.30;74.40
51988;DHT22;38003;52.012;4.346;2022-12-29T08:19:11;11.10;74.40
51988;DHT22;38003;52.012;4.346;2022-12-29T08:21:40;11.20;74.30
51988;DHT22;38003;52.012;4.346;2022-12-29T08:24:08;11.10;74.80
51988;DHT22;38003;52.012;4.346;2022-12-29T08:26:37;11.10;74.90
51988;DHT22;38003;52.012;4.346;2022-12-29T08:29:05;11.10;75.30
51988;DHT22;38003;52.012;4.346;2022-12-29T08:31:34;11.10;75.40
51988;DHT22;38003;52.012;4.346;2022-12-29T08:34:02;11.00;75.80
51988;DHT22;38003;52.012;4.346;2022-12-29T08:36:30;11.10;76.10
51988;DHT22;38003;52.012;4.346;2022-12-29T08:38:59;11.00;76.70
51988;DHT22;38003;52.012;4.346;2022-12-29T08:41:26;11.00;76.50
51988;DHT22;38003;52.012;4.346;2022-12-29T08:43:56;10.80;77.80
51988;DHT22;38003;52.012;4.346;2022-12-29T08:46:24;10.90;77.70
51988;DHT22;38003;52.012;4.346;2022-12-29T08:48:52;10.90;78.00
51988;DHT22;38003;52.012;4.346;2022-12-29T08:51:20;10.90;78.20
51988;DHT22;38003;52.012;4.346;2022-12-29T08:53:50;10.90;78.40
51988;DHT22;38003;52.012;4.346;2022-12-29T08:56:18;10.90;78.60
51988;DHT22;38003;52.012;4.346;2022-12-29T08:58:46;10.90;78.90
51988;DHT22;38003;52.012;4.346;2022-12-29T09:01:16;10.80;79.80
51988;DHT22;38003;52.012;4.346;2022-12-29T09:03:44;10.80;79.70
51988;DHT22;38003;52.012;4.346;2022-12-29T09:06:32;10.90;78.70
51988;DHT22;38003;52.012;4.346;2022-12-29T09:09:06;10.80;79.30
51988;DHT22;38003;52.012;4.346;2022-12-29T09:11:34;11.10;79.40
51988;DHT22;38003;52.012;4.346;2022-12-29T09:14:02;11.00;79.00
51988;DHT22;38003;52.012;4.346;2022-12-29T09:16:31;11.00;78.90
51988;DHT22;38003;52.012;4.346;2022-12-29T09:18:59;11.00;79.60
51988;DHT22;38003;52.012;4.346;2022-12-29T09:21:27;11.10;79.60
51988;DHT22;38003;52.012;4.346;2022-12-29T09:23:55;10.90;79.70
51988;DHT22;38003;52.012;4.346;2022-12-29T09:26:23;11.00;79.40
51988;DHT22;38003;52.012;4.346;2022-12-29T09:28:51;11.00;79.10
51988;DHT22;38003;52.012;4.346;2022-12-29T09:31:19;10.90;79.80
51988;DHT22;38003;52.012;4.346;2022-12-29T09:33:48;11.00;80.20
51988;DHT22;38003;52.012;4.346;2022-12-29T09:36:16;11.00;80.20
51988;DHT22;38003;52.012;4.346;2022-12-29T09:38:43;11.00;80.20
51988;DHT22;38003;52.012;4.346;2022-12-29T09:41:16;11.10;79.80
51988;DHT22;38003;52.012;4.346;2022-12-29T09:44:01;11.20;79.50
51988;DHT22;38003;52.012;4.346;2022-12-29T09:46:33;11.40;79.20
51988;DHT22;38003;52.012;4.346;2022-12-29T09:49:15;11.40;78.80
51988;DHT22;38003;52.012;4.346;2022-12-29T09:51:48;11.60;79.70
51988;DHT22;38003;52.012;4.346;2022-12-29T09:54:25;11.50;78.30
51988;DHT22;38003;52.012;4.346;2022-12-29T09:56:53;11.50;78.70
51988;DHT22;38003;52.012;4.346;2022-12-29T09:59:26;11.50;78.50
51988;DHT22;38003;52.012;4.346;2022-12-29T10:01:59;11.50;78.70
51988;DHT22;38003;52.012;4.346;2022-12-29T10:04:31;11.50;78.50
51988;DHT22;38003;52.012;4.346;2022-12-29T10:07:04;11.50;77.60
51988;DHT22;38003;52.012;4.346;2022-12-29T10:10:01;11.70;77.40
51988;DHT22;38003;52.012;4.346;2022-12-29T10:12:38;11.50;77.20
51988;DHT22;38003;52.012;4.346;2022-12-29T10:15:18;11.50;76.80
51988;DHT22;38003;52.012;4.346;2022-12-29T10:18:00;11.50;76.40
51988;DHT22;38003;52.012;4.346;2022-12-29T10:20:33;11.60;76.20
51988;DHT22;38003;52.012;4.346;2022-12-29T10:23:17;11.60;76.00
51988;DHT22;38003;52.012;4.346;2022-12-29T10:25:47;11.60;75.40
51988;DHT22;38003;52.012;4.346;2022-12-29T10:28:20;11.50;75.30
51988;DHT22;38003;52.012;4.346;2022-12-29T10:30:50;11.40;75.20
51988;DHT22;38003;52.012;4.346;2022-12-29T10:33:21;11.50;75.40
51988;DHT22;38003;52.012;4.346;2022-12-29T10:35:52;11.60;74.40
51988;DHT22;38003;52.012;4.346;2022-12-29T10:38:25;11.60;74.60
51988;DHT22;38003;52.012;4.346;2022-12-29T10:40:58;11.80;74.30
51988;DHT22;38003;52.012;4.346;2022-12-29T10:43:29;11.80;73.60
51988;DHT22;38003;52.012;4.346;2022-12-29T10:45:59;11.90;73.20
51988;DHT22;38003;52.012;4.346;2022-12-29T10:48:32;12.00;73.10
51988;DHT22;38003;52.012;4.346;2022-12-29T10:51:02;12.00;72.70
51988;DHT22;38003;52.012;4.346;2022-12-29T10:53:37;12.10;72.30
51988;DHT22;38003;52.012;4.346;2022-12-29T10:56:25;12.20;72.20
51988;DHT22;38003;52.012;4.346;2022-12-29T10:58:57;12.30;72.60
51988;DHT22;38003;52.012;4.346;2022-12-29T11:01:32;12.30;72.30
51988;DHT22;38003;52.012;4.346;2022-12-29T11:04:08;12.30;72.50
51988;DHT22;38003;52.012;4.346;2022-12-29T11:06:43;12.40;72.90
51988;DHT22;38003;52.012;4.346;2022-12-29T11:09:14;12.40;72.20
51988;DHT22;38003;52.012;4.346;2022-12-29T11:11:43;12.40;72.40
51988;DHT22;38003;52.012;4.346;2022-12-29T11:14:14;12.40;71.40
51988;DHT22;38003;52.012;4.346;2022-12-29T11:16:42;12.20;71.10
51988;DHT22;38003;52.012;4.346;2022-12-29T11:19:22;12.20;71.40
51988;DHT22;38003;52.012;4.346;2022-12-29T11:21:52;12.10;70.50
51988;DHT22;38003;52.012;4.346;2022-12-29T11:24:22;12.20;71.20
51988;DHT22;38003;52.012;4.346;2022-12-29T11:26:51;12.20;71.00
51988;DHT22;38003;52.012;4.346;2022-12-29T11:29:25;12.30;71.00
51988;DHT22;38003;52.012;4.346;2022-12-29T11:31:55;12.20;71.20
51988;DHT22;38003;52.012;4.346;2022-12-29T11:34:26;12.20;71.40
51988;DHT22;38003;52.012;4.346;2022-12-29T11:37:02;12.10;71.00
51988;DHT22;38003;52.012;4.346;2022-12-29T11:39:34;12.00;70.50
51988;DHT22;38003;52.012;4.346;2022-12-29T11:42:04;12.20;70.60
51988;DHT22;38003;52.012;4.346;2022-12-29T11:44:37;12.10;70.10
51988;DHT22;38003;52.012;4.346;2022-12-29T11:47:13;12.10;70.40
51988;DHT22;38003;52.012;4.346;2022-12-29T11:49:50;12.20;70.20
51988;DHT22;38003;52.012;4.346;2022-12-29T11:52:22;12.10;69.40
51988;DHT22;38003;52.012;4.346;2022-12-29T11:54:52;12.00;69.80
51988;DHT22;38003;52.012;4.346;2022-12-29T11:57:22;12.00;70.10
51988;DHT22;38003;52.012;4.346;2022-12-29T11:59:51;12.10;70.30
51988;DHT22;38003;52.012;4.346;2022-12-29T12:02:36;12.20;70.70
51988;DHT22;38003;52.012;4.346;2022-12-29T12:05:15;12.10;71.40
51988;DHT22;38003;52.012;4.346;2022-12-29T12:07:51;12.00;71.90
51988;DHT22;38003;52.012;4.346;2022-12-29T12:10:23;12.00;72.20
51988;DHT22;38003;52.012;4.346;2022-12-29T12:12:59;12.20;72.00
51988;DHT22;38003;52.012;4.346;2022-12-29T12:15:33;12.20;71.70
51988;DHT22;38003;52.012;4.346;2022-12-29T12:18:17;12.30;71.80
51988;DHT22;38003;52.012;4.346;2022-12-29T12:20:49;12.30;71.60
51988;DHT22;38003;52.012;4.346;2022-12-29T12:23:30;12.30;71.20
51988;DHT22;38003;52.012;4.346;2022-12-29T12:26:08;12.30;71.20
51988;DHT22;38003;52.012;4.346;2022-12-29T12:28:43;12.30;71.40
51988;DHT22;38003;52.012;4.346;2022-12-29T12:31:19;12.20;70.60
51988;DHT22;38003;52.012;4.346;2022-12-29T12:33:54;12.30;70.50
51988;DHT22;38003;52.012;4.346;2022-12-29T12:36:49;12.30;69.90
51988;DHT22;38003;52.012;4.346;2022-12-29T12:39:26;12.20;69.90
51988;DHT22;38003;52.012;4.346;2022-12-29T12:42:06;12.30;70.10
51988;DHT22;38003;52.012;4.346;2022-12-29T12:44:47;12.20;70.00
51988;DHT22;38003;52.012;4.346;2022-12-29T12:47:34;12.30;70.60
51988;DHT22;38003;52.012;4.346;2022-12-29T12:50:22;12.30;70.70
51988;DHT22;38003;52.012;4.346;2022-12-29T12:56:15;12.20;71.10
51988;DHT22;38003;52.012;4.346;2022-12-29T12:58:53;12.20;71.50
51988;DHT22;38003;52.012;4.346;2022-12-29T13:01:34;12.30;72.00
51988;DHT22;38003;52.012;4.346;2022-12-29T13:04:19;12.40;70.80
51988;DHT22;38003;52.012;4.346;2022-12-29T13:06:57;12.40;70.50
51988;DHT22;38003;52.012;4.346;2022-12-29T13:09:36;12.50;70.90
51988;DHT22;38003;52.012;4.346;2022-12-29T13:12:24;12.50;70.70
51988;DHT22;38003;52.012;4.346;2022-12-29T13:15:06;12.50;70.20
51988;DHT22;38003;52.012;4.346;2022-12-29T13:17:42;12.50;70.50
51988;DHT22;38003;52.012;4.346;2022-12-29T13:20:20;12.50;70.80
51988;DHT22;38003;52.012;4.346;2022-12-29T13:22:54;12.50;70.80
51988;DHT22;38003;52.012;4.346;2022-12-29T13:25:30;12.40;71.10
51988;DHT22;38003;52.012;4.346;2022-12-29T13:28:09;12.40;71.40
51988;DHT22;38003;52.012;4.346;2022-12-29T13:30:43;12.40;71.10
51988;DHT22;38003;52.012;4.346;2022-12-29T13:33:20;12.30;71.00
51988;DHT22;38003;52.012;4.346;2022-12-29T13:35:57;12.30;71.00
51988;DHT22;38003;52.012;4.346;2022-12-29T13:38:32;12.10;71.10
51988;DHT22;38003;52.012;4.346;2022-12-29T13:41:04;12.10;71.10
51988;DHT22;38003;52.012;4.346;2022-12-29T13:43:37;12.10;71.50
51988;DHT22;38003;52.012;4.346;2022-12-29T13:46:10;12.00;71.60
51988;DHT22;38003;52.012;4.346;2022-12-29T13:48:44;12.00;71.80
51988;DHT22;38003;52.012;4.346;2022-12-29T13:51:15;11.80;73.00
51988;DHT22;38003;52.012;4.346;2022-12-29T13:54:12;11.70;73.80
51988;DHT22;38003;52.012;4.346;2022-12-29T13:56:47;11.60;74.70
51988;DHT22;38003;52.012;4.346;2022-12-29T13:59:22;11.60;74.30
51988;DHT22;38003;52.012;4.346;2022-12-29T14:01:58;11.70;74.10
51988;DHT22;38003;52.012;4.346;2022-12-29T14:04:29;11.70;74.20
51988;DHT22;38003;52.012;4.346;2022-12-29T14:07:02;11.80;74.30
51988;DHT22;38003;52.012;4.346;2022-12-29T14:09:45;11.70;74.50
51988;DHT22;38003;52.012;4.346;2022-12-29T14:12:27;11.70;74.40
51988;DHT22;38003;52.012;4.346;2022-12-29T14:15:05;11.80;74.40
51988;DHT22;38003;52.012;4.346;2022-12-29T14:17:34;11.60;74.80
51988;DHT22;38003;52.012;4.346;2022-12-29T14:20:02;11.60;74.80
51988;DHT22;38003;52.012;4.346;2022-12-29T14:22:31;11.60;74.50
51988;DHT22;38003;52.012;4.346;2022-12-29T14:24:59;11.60;74.70
51988;DHT22;38003;52.012;4.346;2022-12-29T14:27:44;11.70;74.70
51988;DHT22;38003;52.012;4.346;2022-12-29T14:30:48;11.70;74.40
51988;DHT22;38003;52.012;4.346;2022-12-29T14:33:17;11.70;74.10
51988;DHT22;38003;52.012;4.346;2022-12-29T14:35:47;11.70;74.10
51988;DHT22;38003;52.012;4.346;2022-12-29T14:38:22;11.60;74.10
51988;DHT22;38003;52.012;4.346;2022-12-29T14:40:50;11.60;74.50
51988;DHT22;38003;52.012;4.346;2022-12-29T14:43:22;11.60;75.00
51988;DHT22;38003;52.012;4.346;2022-12-29T14:45:58;11.60;74.20
51988;DHT22;38003;52.012;4.346;2022-12-29T14:48:34;11.60;74.10
51988;DHT22;38003;52.012;4.346;2022-12-29T14:51:20;11.60;73.90
51988;DHT22;38003;52.012;4.346;2022-12-29T14:53:52;11.50;73.70
51988;DHT22;38003;52.012;4.346;2022-12-29T14:56:25;11.50;73.80
51988;DHT22;38003;52.012;4.346;2022-12-29T14:58:54;11.50;73.90
51988;DHT22;38003;52.012;4.346;2022-12-29T15:01:32;11.50;73.80
51988;DHT22;38003;52.012;4.346;2022-12-29T15:04:06;11.50;74.00
51988;DHT22;38003;52.012;4.346;2022-12-29T15:06:42;11.40;73.80
51988;DHT22;38003;52.012;4.346;2022-12-29T15:09:19;11.50;73.70
51988;DHT22;38003;52.012;4.346;2022-12-29T15:11:51;11.40;74.00
51988;DHT22;38003;52.012;4.346;2022-12-29T15:14:30;11.60;73.90
51988;DHT22;38003;52.012;4.346;2022-12-29T15:17:08;11.50;73.70
51988;DHT22;38003;52.012;4.346;2022-12-29T15:19:37;11.50;73.50
51988;DHT22;38003;52.012;4.346;2022-12-29T15:22:05;11.50;73.70
51988;DHT22;38003;52.012;4.346;2022-12-29T15:24:34;11.50;73.40
51988;DHT22;38003;52.012;4.346;2022-12-29T15:27:13;11.50;73.20
51988;DHT22;38003;52.012;4.346;2022-12-29T15:29:43;11.50;73.00
51988;DHT22;38003;52.012;4.346;2022-12-29T15:32:21;11.60;72.90
51988;DHT22;38003;52.012;4.346;2022-12-29T15:34:52;11.60;72.60
51988;DHT22;38003;52.012;4.346;2022-12-29T15:37:23;11.50;72.50
51988;DHT22;38003;52.012;4.346;2022-12-29T15:39:54;11.50;72.80
51988;DHT22;38003;52.012;4.346;2022-12-29T15:42:46;11.50;72.70
51988;DHT22;38003;52.012;4.346;2022-12-29T15:45:15;11.40;72.80
51988;DHT22;38003;52.012;4.346;2022-12-29T15:47:46;11.30;72.80
51988;DHT22;38003;52.012;4.346;2022-12-29T15:50:21;11.20;73.00
51988;DHT22;38003;52.012;4.346;2022-12-29T15:52:50;11.30;72.90
51988;DHT22;38003;52.012;4.346;2022-12-29T15:55:30;11.10;72.90
51988;DHT22;38003;52.012;4.346;2022-12-29T15:58:01;11.10;72.90
51988;DHT22;38003;52.012;4.346;2022-12-29T16:00:30;11.10;73.40
51988;DHT22;38003;52.012;4.346;2022-12-29T16:03:01;11.20;72.80
51988;DHT22;38003;52.012;4.346;2022-12-29T16:05:34;11.10;72.60
51988;DHT22;38003;52.012;4.346;2022-12-29T16:08:03;11.00;72.30
51988;DHT22;38003;52.012;4.346;2022-12-29T16:10:48;11.10;72.60